COP2 weather

Orillia (Ontario Provincial Police) Heliport
Orillia, Ontario, Canada

Public forecast

Using degrees Celsius for public forecast. Weather courtesy of forecast.io.

Closest aviation weather report (METAR) to Orillia (Ontario Provincial Police) Heliport

Closest report is Muskoka Airport, 24.0 nm (44.5 km) NNE. Retrieved 2020/05/26 09:31 UTC (0 seconds ago):

CYQA 260931Z AUTO 15002KT 1 3/4SM BR CLR 15/15 A3008 RMK SLP185

Closest aviation forecast (TAF) to Orillia (Ontario Provincial Police) Heliport

Forecast is more than 12 hours old.

Closest forecast is Muskoka Airport, 24.0 nm (44.5 km) NNE. Retrieved 2020/05/25 20:00 UTC (13 hours ago):

TAF CYQA 251930Z 2520/2602 25010KT P6SM FEW250 BECMG 2523/2601 VRB03KT RMK NXT FCST WILL BE ISSUED AT 261145Z